createdAt,value
2023-05-21T00:01:16.530Z,11.50
2023-05-21T00:03:50.846Z,11.50
2023-05-21T00:06:25.856Z,11.40
2023-05-21T00:08:59.360Z,11.40
2023-05-21T00:11:33.633Z,11.40
2023-05-21T00:14:07.389Z,11.30
2023-05-21T00:16:40.940Z,11.30
2023-05-21T00:19:14.678Z,11.30
2023-05-21T00:21:49.700Z,11.30
2023-05-21T00:24:23.247Z,11.30
2023-05-21T00:26:57.142Z,11.30
2023-05-21T00:29:31.130Z,11.30
2023-05-21T00:32:05.225Z,11.20
2023-05-21T00:34:38.826Z,11.20
2023-05-21T00:37:15.369Z,11.20
2023-05-21T00:39:49.079Z,11.20
2023-05-21T00:42:27.424Z,11.20
2023-05-21T00:45:03.729Z,11.20
2023-05-21T00:47:37.722Z,11.10
2023-05-21T00:50:14.954Z,11.10
2023-05-21T00:52:50.258Z,11.10
2023-05-21T00:55:23.957Z,11.10
2023-05-21T00:57:57.515Z,11.10
2023-05-21T01:00:31.690Z,11.10
2023-05-21T01:03:06.242Z,11.10
2023-05-21T01:05:40.346Z,11.10
2023-05-21T01:08:15.420Z,11.20
2023-05-21T01:10:49.076Z,11.20
2023-05-21T01:13:24.019Z,11.20
2023-05-21T01:15:58.693Z,11.20
2023-05-21T01:18:35.304Z,11.20
2023-05-21T01:21:09.811Z,11.20
2023-05-21T01:23:44.786Z,11.20
2023-05-21T01:26:18.575Z,11.30
2023-05-21T01:28:52.913Z,11.30
2023-05-21T01:31:33.072Z,11.30
2023-05-21T01:34:08.977Z,11.30
2023-05-21T01:36:46.445Z,11.30
2023-05-21T01:39:28.660Z,11.30
2023-05-21T01:42:04.689Z,11.30
2023-05-21T01:44:39.039Z,11.30
2023-05-21T01:47:13.237Z,11.30
2023-05-21T01:49:47.421Z,11.30
2023-05-21T01:52:21.342Z,11.30
2023-05-21T01:54:57.957Z,11.30
2023-05-21T01:57:31.717Z,11.40
2023-05-21T02:00:06.613Z,11.30
2023-05-21T02:02:49.145Z,11.30
2023-05-21T02:05:22.778Z,11.30
2023-05-21T02:07:57.151Z,11.40
2023-05-21T02:10:32.172Z,11.40
2023-05-21T02:13:05.703Z,11.40
2023-05-21T02:15:39.232Z,11.40
2023-05-21T02:18:16.782Z,11.40
2023-05-21T02:20:51.346Z,11.40
2023-05-21T02:23:24.903Z,11.40
2023-05-21T02:25:59.974Z,11.50
2023-05-21T02:28:33.899Z,11.50
2023-05-21T02:31:07.534Z,11.50
2023-05-21T02:33:42.960Z,11.50
2023-05-21T02:36:19.025Z,11.50
2023-05-21T02:38:52.850Z,11.50
2023-05-21T02:41:28.886Z,11.50
2023-05-21T02:44:02.469Z,11.50
2023-05-21T02:46:36.910Z,11.50
2023-05-21T02:49:10.615Z,11.50
2023-05-21T02:51:44.996Z,11.50
2023-05-21T02:54:18.518Z,11.50
2023-05-21T02:56:53.454Z,11.50
2023-05-21T02:59:26.982Z,11.40
2023-05-21T03:02:00.665Z,11.40
2023-05-21T03:04:41.119Z,11.40
2023-05-21T03:07:15.273Z,11.40
2023-05-21T03:09:50.902Z,11.40
2023-05-21T03:12:25.818Z,11.40
2023-05-21T03:15:00.100Z,11.40
2023-05-21T03:17:34.791Z,11.40
2023-05-21T03:20:16.141Z,11.40
2023-05-21T03:22:49.980Z,11.30
2023-05-21T03:25:25.386Z,11.30
2023-05-21T03:28:01.844Z,11.30
2023-05-21T03:30:53.717Z,11.30
2023-05-21T03:33:56.640Z,11.30
2023-05-21T03:36:34.311Z,11.30
2023-05-21T03:39:08.969Z,11.30
2023-05-21T03:41:42.825Z,11.30
2023-05-21T03:44:32.469Z,11.30
2023-05-21T03:47:28.492Z,11.30
2023-05-21T03:50:03.493Z,11.30
2023-05-21T03:52:37.380Z,11.40
2023-05-21T03:55:11.558Z,11.40
2023-05-21T03:57:45.775Z,11.40
2023-05-21T04:00:21.635Z,11.40
2023-05-21T04:02:55.467Z,11.50
2023-05-21T04:05:29.120Z,11.50
2023-05-21T04:08:03.295Z,11.50
2023-05-21T04:10:36.972Z,11.60
2023-05-21T04:13:10.615Z,11.60
2023-05-21T04:15:46.781Z,11.60
2023-05-21T04:18:20.676Z,11.60
2023-05-21T04:20:54.235Z,11.60
2023-05-21T04:23:27.845Z,11.70
2023-05-21T04:26:03.598Z,11.70
2023-05-21T04:28:37.938Z,11.80
2023-05-21T04:31:13.829Z,11.80
2023-05-21T04:33:47.587Z,11.80
2023-05-21T04:36:21.125Z,11.90
2023-05-21T04:38:54.916Z,12.00
2023-05-21T04:41:28.544Z,12.00
2023-05-21T04:44:02.161Z,12.10
2023-05-21T04:46:41.757Z,12.10
2023-05-21T04:49:15.612Z,12.10
2023-05-21T04:51:53.083Z,12.20
2023-05-21T04:54:26.974Z,12.20
2023-05-21T04:57:00.520Z,12.30
2023-05-21T04:59:34.119Z,12.40
2023-05-21T05:02:09.083Z,12.50
2023-05-21T05:04:44.027Z,12.50
2023-05-21T05:07:18.165Z,12.50
2023-05-21T05:09:51.791Z,12.50
2023-05-21T05:12:25.427Z,12.60
2023-05-21T05:14:59.013Z,12.70
2023-05-21T05:17:35.692Z,12.80
2023-05-21T05:20:10.524Z,12.90
2023-05-21T05:22:44.495Z,12.90
2023-05-21T05:25:19.935Z,13.00
2023-05-21T05:27:53.574Z,13.10
2023-05-21T05:30:27.221Z,13.10
2023-05-21T05:33:05.889Z,13.30
2023-05-21T05:35:39.517Z,13.40
2023-05-21T05:38:13.605Z,13.50
2023-05-21T05:40:47.280Z,13.50
2023-05-21T05:43:21.120Z,13.50
2023-05-21T05:45:55.648Z,13.60
2023-05-21T05:48:31.127Z,13.70
2023-05-21T05:51:05.835Z,13.80
2023-05-21T05:53:39.510Z,14.00
2023-05-21T05:56:13.088Z,14.10
2023-05-21T05:58:47.460Z,14.20
2023-05-21T06:01:24.710Z,14.30
2023-05-21T06:03:59.736Z,14.40
2023-05-21T06:06:34.876Z,14.60
2023-05-21T06:09:08.564Z,14.70
2023-05-21T06:11:42.168Z,14.80
2023-05-21T06:14:15.828Z,15.00
2023-05-21T06:16:49.747Z,15.20
2023-05-21T06:19:25.460Z,15.40
2023-05-21T06:21:59.264Z,15.50
2023-05-21T06:24:32.792Z,15.70
2023-05-21T06:27:07.428Z,15.90
2023-05-21T06:29:41.821Z,16.10
2023-05-21T06:32:15.460Z,16.30
2023-05-21T06:34:50.535Z,16.60
2023-05-21T06:37:26.760Z,16.80
2023-05-21T06:40:00.815Z,17.10
2023-05-21T06:42:34.314Z,17.30
2023-05-21T06:45:26.398Z,17.50
2023-05-21T06:48:05.263Z,17.80
2023-05-21T06:50:40.219Z,18.00
2023-05-21T06:53:16.432Z,18.20
2023-05-21T06:55:53.922Z,18.50
2023-05-21T06:58:43.178Z,18.80
2023-05-21T07:01:17.108Z,19.20
2023-05-21T07:03:50.826Z,19.50
2023-05-21T07:06:26.530Z,19.90
2023-05-21T07:09:00.122Z,20.30
2023-05-21T07:11:33.869Z,20.60
2023-05-21T07:14:10.626Z,20.90
2023-05-21T07:16:45.051Z,21.30
2023-05-21T07:19:19.647Z,21.70
2023-05-21T07:21:54.631Z,22.10
2023-05-21T07:24:29.191Z,22.40
2023-05-21T07:27:11.303Z,22.90
2023-05-21T07:29:51.700Z,23.20
2023-05-21T07:32:26.833Z,23.60
2023-05-21T07:35:03.086Z,24.00
2023-05-21T07:37:39.387Z,24.30
2023-05-21T07:40:14.286Z,24.50
2023-05-21T07:42:49.186Z,24.80
2023-05-21T07:45:25.678Z,25.10
2023-05-21T07:47:59.242Z,25.40
2023-05-21T07:50:33.865Z,25.70
2023-05-21T07:53:08.896Z,25.80
2023-05-21T07:55:47.829Z,26.00
2023-05-21T07:58:24.078Z,26.20
2023-05-21T08:00:58.601Z,26.50
2023-05-21T08:03:33.825Z,26.80
2023-05-21T08:06:07.646Z,27.00
2023-05-21T08:08:42.608Z,27.10
2023-05-21T08:11:17.318Z,27.10
2023-05-21T08:13:50.960Z,27.10
2023-05-21T08:16:24.600Z,27.20
2023-05-21T08:18:58.265Z,27.20
2023-05-21T08:21:32.781Z,27.10
2023-05-21T08:24:09.289Z,27.20
2023-05-21T08:26:44.030Z,27.30
2023-05-21T08:29:17.623Z,27.70
2023-05-21T08:31:51.202Z,28.10
2023-05-21T08:34:24.820Z,28.30
2023-05-21T08:37:09.643Z,28.60
2023-05-21T08:40:14.586Z,28.50
2023-05-21T08:42:51.003Z,28.60
2023-05-21T08:45:53.118Z,28.70
2023-05-21T08:48:26.850Z,28.80
2023-05-21T08:51:01.354Z,28.70
2023-05-21T08:53:40.900Z,28.90
2023-05-21T08:56:18.712Z,28.90
2023-05-21T08:58:56.739Z,29.00
2023-05-21T09:01:34.906Z,29.40
2023-05-21T09:04:20.759Z,29.70
2023-05-21T09:06:59.369Z,29.80
2023-05-21T09:09:56.906Z,29.80
2023-05-21T09:12:32.983Z,29.90
2023-05-21T09:15:08.400Z,29.80
2023-05-21T09:17:47.685Z,30.00
2023-05-21T09:20:47.320Z,30.10
2023-05-21T09:23:20.956Z,30.40
2023-05-21T09:25:55.832Z,30.40
2023-05-21T09:28:37.487Z,30.40
2023-05-21T09:31:13.237Z,30.70
2023-05-21T09:33:49.714Z,30.80
2023-05-21T09:36:26.681Z,30.80
2023-05-21T09:39:00.676Z,31.10
2023-05-21T09:41:35.615Z,31.30
2023-05-21T09:44:12.119Z,31.40
2023-05-21T09:46:46.003Z,31.40
2023-05-21T09:49:26.893Z,31.50
2023-05-21T09:52:01.425Z,31.60
2023-05-21T09:54:35.533Z,31.80
2023-05-21T09:57:09.348Z,31.70
2023-05-21T09:59:44.272Z,31.50
2023-05-21T10:02:20.876Z,31.10
2023-05-21T10:04:55.326Z,30.70
2023-05-21T10:07:29.773Z,30.70
2023-05-21T10:10:05.566Z,30.70
2023-05-21T10:12:41.387Z,30.70
2023-05-21T10:15:18.154Z,30.90
2023-05-21T10:17:53.455Z,30.80
2023-05-21T10:20:27.345Z,30.70
2023-05-21T10:23:00.986Z,30.70
2023-05-21T10:25:34.797Z,30.70
2023-05-21T10:28:08.527Z,30.70
2023-05-21T10:30:44.560Z,30.50
2023-05-21T10:33:18.309Z,30.10
2023-05-21T10:35:53.318Z,29.90
2023-05-21T10:38:27.904Z,29.90
2023-05-21T10:41:04.590Z,29.80
2023-05-21T10:44:04.968Z,29.80
2023-05-21T10:46:58.893Z,29.80
2023-05-21T10:49:46.825Z,29.90
2023-05-21T10:52:36.101Z,30.00
2023-05-21T10:55:23.468Z,29.90
2023-05-21T10:58:21.792Z,30.10
2023-05-21T11:00:56.037Z,30.20
2023-05-21T11:03:35.043Z,30.00
2023-05-21T11:06:11.706Z,30.00
2023-05-21T11:08:49.266Z,30.00
2023-05-21T11:11:44.995Z,30.10
2023-05-21T11:14:35.297Z,30.10
2023-05-21T11:17:13.961Z,30.10
2023-05-21T11:19:50.897Z,30.20
2023-05-21T11:22:26.098Z,30.30
2023-05-21T11:25:03.585Z,30.50
2023-05-21T11:27:38.448Z,30.60
2023-05-21T11:30:17.128Z,30.90
2023-05-21T11:33:20.831Z,31.00
2023-05-21T11:36:00.396Z,30.80
2023-05-21T11:38:34.143Z,30.90
2023-05-21T11:41:07.705Z,30.90
2023-05-21T11:43:42.089Z,30.70
2023-05-21T11:46:15.970Z,30.70
2023-05-21T11:48:50.863Z,30.90
2023-05-21T11:51:26.428Z,30.80
2023-05-21T11:54:00.005Z,30.90
2023-05-21T11:56:35.021Z,31.00
2023-05-21T11:59:17.226Z,31.00
2023-05-21T12:01:52.225Z,31.00
2023-05-21T12:04:25.835Z,31.00
2023-05-21T12:07:05.198Z,30.90
2023-05-21T12:09:41.873Z,30.50
2023-05-21T12:12:17.248Z,30.30
2023-05-21T12:14:52.033Z,30.40
2023-05-21T12:17:28.232Z,30.50
2023-05-21T12:20:06.965Z,30.50
2023-05-21T12:22:44.409Z,30.70
2023-05-21T12:25:20.539Z,31.00
2023-05-21T12:27:58.938Z,31.00
2023-05-21T12:30:32.760Z,31.10
2023-05-21T12:33:07.154Z,31.10
2023-05-21T12:35:40.746Z,31.10
2023-05-21T12:38:15.773Z,31.10
2023-05-21T12:40:49.293Z,31.00
2023-05-21T12:43:22.801Z,31.10
2023-05-21T12:45:56.426Z,31.00
2023-05-21T12:48:30.212Z,30.90
2023-05-21T12:51:03.720Z,30.70
2023-05-21T12:53:43.279Z,30.70
2023-05-21T12:56:17.703Z,30.50
2023-05-21T12:58:51.740Z,30.30
2023-05-21T13:01:26.605Z,30.50
2023-05-21T13:04:00.697Z,30.50
2023-05-21T13:06:43.593Z,30.50
2023-05-21T13:09:18.507Z,30.50
2023-05-21T13:11:52.159Z,30.30
2023-05-21T13:14:25.646Z,30.00
2023-05-21T13:16:59.440Z,29.90
2023-05-21T13:19:33.099Z,29.70
2023-05-21T13:22:07.270Z,29.60
2023-05-21T13:24:43.379Z,29.30
2023-05-21T13:27:16.854Z,29.20
2023-05-21T13:29:50.347Z,29.10
2023-05-21T13:32:23.991Z,29.20
2023-05-21T13:34:57.581Z,29.10
2023-05-21T13:37:31.116Z,29.10
2023-05-21T13:40:07.391Z,29.00
2023-05-21T13:42:40.982Z,29.00
2023-05-21T13:45:16.227Z,28.90
2023-05-21T13:47:49.954Z,28.90
2023-05-21T13:50:23.552Z,28.80
2023-05-21T13:52:57.106Z,28.90
2023-05-21T13:55:32.221Z,29.00
2023-05-21T13:58:05.821Z,28.80
2023-05-21T14:00:41.128Z,29.00
2023-05-21T14:03:14.720Z,29.00
2023-05-21T14:05:53.718Z,29.10
2023-05-21T14:08:29.030Z,29.20
2023-05-21T14:11:04.929Z,29.10
2023-05-21T14:13:38.638Z,29.10
2023-05-21T14:16:12.296Z,29.10
2023-05-21T14:18:45.922Z,29.00
2023-05-21T14:21:19.831Z,29.00
2023-05-21T14:23:53.589Z,28.80
2023-05-21T14:26:29.425Z,28.80
2023-05-21T14:29:03.239Z,28.80
2023-05-21T14:31:37.292Z,28.60
2023-05-21T14:34:11.297Z,28.70
2023-05-21T14:36:44.897Z,28.50
2023-05-21T14:39:18.669Z,28.50
2023-05-21T14:41:53.587Z,28.50
2023-05-21T14:44:28.044Z,28.50
2023-05-21T14:47:01.729Z,28.40
2023-05-21T14:49:35.579Z,28.40
2023-05-21T14:52:09.236Z,28.40
2023-05-21T14:54:42.765Z,28.40
2023-05-21T14:57:17.692Z,28.30
2023-05-21T14:59:51.500Z,28.20
2023-05-21T15:02:25.521Z,28.00
2023-05-21T15:04:59.160Z,27.90
2023-05-21T15:07:32.674Z,27.70
2023-05-21T15:10:07.117Z,27.70
2023-05-21T15:12:42.446Z,27.50
2023-05-21T15:15:17.161Z,27.30
2023-05-21T15:17:51.465Z,27.20
2023-05-21T15:20:25.160Z,27.20
2023-05-21T15:23:15.330Z,27.10
2023-05-21T15:25:49.315Z,27.00
2023-05-21T15:28:24.311Z,27.00
2023-05-21T15:30:57.991Z,26.80
2023-05-21T15:33:31.585Z,26.70
2023-05-21T15:36:05.501Z,26.60
2023-05-21T15:38:39.116Z,26.50
2023-05-21T15:41:12.718Z,26.40
2023-05-21T15:43:47.951Z,26.30
2023-05-21T15:46:21.665Z,26.10
2023-05-21T15:48:55.221Z,26.10
2023-05-21T15:51:28.953Z,25.90
2023-05-21T15:54:02.500Z,25.70
2023-05-21T15:56:35.997Z,25.60
2023-05-21T15:59:10.930Z,25.40
2023-05-21T16:01:44.637Z,25.30
2023-05-21T16:04:20.372Z,25.30
2023-05-21T16:06:53.881Z,25.30
2023-05-21T16:09:27.431Z,25.10
2023-05-21T16:12:00.999Z,25.00
2023-05-21T16:14:36.256Z,24.90
2023-05-21T16:17:09.903Z,24.80
2023-05-21T16:19:43.554Z,24.70
2023-05-21T16:22:17.222Z,24.50
2023-05-21T16:24:50.862Z,24.40
2023-05-21T16:27:25.062Z,24.30
2023-05-21T16:30:00.213Z,24.10
2023-05-21T16:32:33.855Z,24.00
2023-05-21T16:35:08.112Z,23.90
2023-05-21T16:37:41.666Z,23.80
2023-05-21T16:40:15.359Z,23.70
2023-05-21T16:42:48.955Z,23.50
2023-05-21T16:45:24.043Z,23.50
2023-05-21T16:47:57.636Z,23.40
2023-05-21T16:50:31.249Z,23.40
2023-05-21T16:53:06.218Z,23.30
2023-05-21T16:55:40.380Z,23.20
2023-05-21T16:58:14.309Z,23.20
2023-05-21T17:00:49.497Z,23.00
2023-05-21T17:03:23.407Z,22.90
2023-05-21T17:05:56.963Z,22.80
2023-05-21T17:08:31.813Z,22.70
2023-05-21T17:11:05.934Z,22.60
2023-05-21T17:13:39.410Z,22.50
2023-05-21T17:16:14.384Z,22.30
2023-05-21T17:18:47.958Z,22.30
2023-05-21T17:21:21.580Z,22.10
2023-05-21T17:23:55.082Z,22.00
2023-05-21T17:26:28.613Z,21.90
2023-05-21T17:29:02.160Z,21.80
2023-05-21T17:31:37.463Z,21.70
2023-05-21T17:34:11.029Z,21.50
2023-05-21T17:36:44.559Z,21.40
2023-05-21T17:39:18.345Z,21.30
2023-05-21T17:41:52.560Z,21.20
2023-05-21T17:44:26.111Z,21.00
2023-05-21T17:47:01.401Z,20.90
2023-05-21T17:49:34.979Z,20.90
2023-05-21T17:52:08.774Z,20.70
2023-05-21T17:54:42.301Z,20.60
2023-05-21T17:57:16.169Z,20.40
2023-05-21T17:59:49.892Z,20.30
2023-05-21T18:02:25.483Z,20.10
2023-05-21T18:04:59.141Z,19.90
2023-05-21T18:07:32.677Z,19.80
2023-05-21T18:10:07.081Z,19.70
2023-05-21T18:12:41.008Z,19.50
2023-05-21T18:15:16.090Z,19.40
2023-05-21T18:17:51.092Z,19.20
2023-05-21T18:20:24.718Z,19.10
2023-05-21T18:22:58.223Z,19.00
2023-05-21T18:25:31.783Z,18.90
2023-05-21T18:28:05.619Z,18.70
2023-05-21T18:30:39.333Z,18.60
2023-05-21T18:33:15.470Z,18.40
2023-05-21T18:35:49.131Z,18.20
2023-05-21T18:38:22.745Z,18.00
2023-05-21T18:40:56.269Z,17.90
2023-05-21T18:43:29.789Z,17.70
2023-05-21T18:46:03.330Z,17.60
2023-05-21T18:48:38.380Z,17.40
2023-05-21T18:51:12.095Z,17.30
2023-05-21T18:53:45.659Z,17.10
2023-05-21T18:56:19.252Z,17.00
2023-05-21T18:58:52.818Z,16.80
2023-05-21T19:01:26.488Z,16.70
2023-05-21T19:04:01.668Z,16.50
2023-05-21T19:06:35.485Z,16.40
2023-05-21T19:09:09.002Z,16.30
2023-05-21T19:11:42.605Z,16.10
2023-05-21T19:14:16.211Z,16.00
2023-05-21T19:16:49.858Z,15.90
2023-05-21T19:19:24.960Z,15.80
2023-05-21T19:21:59.102Z,15.70
2023-05-21T19:24:32.737Z,15.60
2023-05-21T19:27:06.602Z,15.50
2023-05-21T19:29:40.208Z,15.40
2023-05-21T19:32:14.103Z,15.30
2023-05-21T19:34:49.412Z,15.20
2023-05-21T19:37:23.154Z,15.10
2023-05-21T19:39:57.139Z,15.00
2023-05-21T19:42:30.883Z,14.90
2023-05-21T19:45:06.899Z,14.80
2023-05-21T19:47:41.727Z,14.70
2023-05-21T19:50:16.914Z,14.60
2023-05-21T19:52:50.605Z,14.60
2023-05-21T19:55:24.720Z,14.40
2023-05-21T19:57:58.589Z,14.40
2023-05-21T20:00:32.130Z,14.30
2023-05-21T20:03:06.907Z,14.20
2023-05-21T20:05:42.078Z,14.10
2023-05-21T20:08:16.605Z,14.10
2023-05-21T20:10:52.045Z,14.00
2023-05-21T20:13:25.900Z,14.00
2023-05-21T20:15:59.486Z,13.90
2023-05-21T20:18:33.076Z,13.80
2023-05-21T20:21:08.037Z,13.70
2023-05-21T20:23:42.053Z,13.60
2023-05-21T20:26:15.791Z,13.50
2023-05-21T20:28:49.469Z,13.50
2023-05-21T20:31:23.185Z,13.40
2023-05-21T20:33:56.967Z,13.30
2023-05-21T20:36:33.949Z,13.20
2023-05-21T20:39:07.983Z,13.20
2023-05-21T20:41:44.674Z,13.10
2023-05-21T20:44:19.100Z,13.00
2023-05-21T20:46:52.763Z,12.90
2023-05-21T20:49:28.226Z,12.80
2023-05-21T20:52:03.169Z,12.70
2023-05-21T20:54:36.695Z,12.70
2023-05-21T20:57:10.322Z,12.60
2023-05-21T20:59:44.204Z,12.50
2023-05-21T21:02:19.059Z,12.40
2023-05-21T21:04:53.879Z,12.30
2023-05-21T21:07:30.102Z,12.30
2023-05-21T21:10:04.250Z,12.30
2023-05-21T21:12:37.851Z,12.20
2023-05-21T21:15:11.755Z,12.10
2023-05-21T21:17:45.658Z,12.10
2023-05-21T21:20:19.488Z,12.10
2023-05-21T21:22:54.567Z,12.00
2023-05-21T21:25:28.101Z,12.00
2023-05-21T21:28:01.621Z,11.90
2023-05-21T21:30:35.154Z,11.80
2023-05-21T21:33:08.814Z,11.80
2023-05-21T21:35:42.727Z,11.80
2023-05-21T21:38:17.614Z,11.70
2023-05-21T21:40:51.229Z,11.70
2023-05-21T21:43:24.772Z,11.60
2023-05-21T21:45:58.509Z,11.60
2023-05-21T21:48:32.035Z,11.50
2023-05-21T21:51:05.892Z,11.50
2023-05-21T21:53:41.097Z,11.40
2023-05-21T21:56:14.604Z,11.40
2023-05-21T21:58:48.318Z,11.30
2023-05-21T22:01:21.915Z,11.30
2023-05-21T22:03:55.530Z,11.20
2023-05-21T22:06:29.029Z,11.20
2023-05-21T22:09:04.264Z,11.10
2023-05-21T22:11:37.878Z,11.00
2023-05-21T22:14:11.725Z,10.90
2023-05-21T22:16:45.333Z,10.90
2023-05-21T22:19:20.663Z,10.80
2023-05-21T22:21:55.232Z,10.70
2023-05-21T22:24:32.940Z,10.70
2023-05-21T22:27:07.920Z,10.70
2023-05-21T22:29:41.503Z,10.60
2023-05-21T22:32:15.309Z,10.60
2023-05-21T22:34:48.886Z,10.50
2023-05-21T22:37:23.626Z,10.50
2023-05-21T22:39:58.724Z,10.40
2023-05-21T22:42:32.514Z,10.40
2023-05-21T22:45:07.536Z,10.30
2023-05-21T22:47:41.087Z,10.30
2023-05-21T22:50:16.685Z,10.20
2023-05-21T22:52:50.452Z,10.10
2023-05-21T22:55:25.395Z,10.10
2023-05-21T22:57:58.938Z,10.00
2023-05-21T23:00:32.457Z,9.90
2023-05-21T23:03:06.088Z,9.90
2023-05-21T23:05:39.791Z,9.80
2023-05-21T23:08:13.566Z,9.80
2023-05-21T23:10:48.488Z,9.70
2023-05-21T23:13:22.039Z,9.70
2023-05-21T23:15:58.978Z,9.60
2023-05-21T23:18:32.854Z,9.60
2023-05-21T23:21:06.607Z,9.50
2023-05-21T23:23:40.178Z,9.50
2023-05-21T23:26:15.297Z,9.40
2023-05-21T23:28:48.821Z,9.40
2023-05-21T23:31:22.544Z,9.30
2023-05-21T23:33:56.720Z,9.20
2023-05-21T23:36:30.243Z,9.20
2023-05-21T23:39:03.800Z,9.20
2023-05-21T23:41:38.789Z,9.10
2023-05-21T23:44:12.704Z,9.10
2023-05-21T23:46:46.229Z,9.00
2023-05-21T23:49:19.747Z,9.00
2023-05-21T23:51:53.317Z,8.90
2023-05-21T23:54:26.948Z,8.90
2023-05-21T23:57:02.162Z,8.80
2023-05-21T23:59:35.762Z,8.80
